Time;durP1;ratioP1;P1;durP2;ratioP2;P2;SDS_P1;SDS_P2;PMS_P1;PMS_P2;Temp;Humidity;BMP_temperature;BMP_pressure;BME280_temperature;BME280_humidity;BME280_pressure;Samples;Min_cycle;Max_cycle;Signal;HPM_P1;HPM_P2
2021/12/13 00:01:29;;;;;;;50.20;23.67;;;;;;;4.62;100.00;101490.72;5068538;28;20131;-63
2021/12/13 00:04:09;;;;;;;43.78;23.25;;;;;;;4.64;100.00;101486.31;5068065;28;20068;-62
2021/12/13 00:07:08;;;;;;;46.05;23.85;;;;;;;4.66;100.00;101484.56;5068124;28;20507;-63
2021/12/13 00:09:43;;;;;;;45.38;23.65;;;;;;;4.66;100.00;101487.16;5035041;28;21207;-63
2021/12/13 00:12:11;;;;;;;51.95;24.40;;;;;;;4.66;100.00;101493.25;5073101;28;20047;-63
2021/12/13 00:14:47;;;;;;;41.50;22.65;;;;;;;4.68;100.00;101496.66;5052881;28;20509;-63
2021/12/13 00:17:18;;;;;;;43.53;24.08;;;;;;;4.66;100.00;101484.56;5053292;28;20140;-63
2021/12/13 00:19:50;;;;;;;40.70;23.08;;;;;;;4.69;100.00;101485.38;5045015;28;20136;-63
2021/12/13 00:22:21;;;;;;;40.67;22.38;;;;;;;4.71;100.00;101491.38;5070072;28;20080;-63
2021/12/13 00:24:51;;;;;;;40.20;22.23;;;;;;;4.71;100.00;101498.38;5064226;28;20048;-63
2021/12/13 00:27:25;;;;;;;42.97;23.15;;;;;;;4.72;100.00;101498.31;5070422;28;20089;-63
2021/12/13 00:30:20;;;;;;;38.17;22.42;;;;;;;4.74;100.00;101498.31;5044947;28;20052;-64
2021/12/13 00:33:03;;;;;;;44.15;22.10;;;;;;;4.72;100.00;101497.47;5074536;28;20135;-63
2021/12/13 00:35:41;;;;;;;37.17;21.73;;;;;;;4.72;100.00;101495.72;5048341;28;20052;-63
2021/12/13 00:38:09;;;;;;;38.03;21.75;;;;;;;4.75;100.00;101503.47;5066950;28;20048;-62
2021/12/13 00:40:43;;;;;;;42.13;23.98;;;;;;;4.74;100.00;101501.78;5051526;28;20061;-64
2021/12/13 00:43:24;;;;;;;41.03;23.13;;;;;;;4.74;100.00;101509.59;5064996;28;20461;-64
2021/12/13 00:45:57;;;;;;;44.30;24.35;;;;;;;4.73;100.00;101509.63;5068545;28;20059;-64
2021/12/13 00:48:28;;;;;;;37.65;22.55;;;;;;;4.76;100.00;101510.41;5071871;28;20135;-63
2021/12/13 00:51:09;;;;;;;36.55;22.13;;;;;;;4.77;100.00;101512.16;5069221;28;20053;-63
2021/12/13 00:53:40;;;;;;;37.88;22.02;;;;;;;4.85;100.00;101514.56;5046525;28;20049;-64
2021/12/13 00:56:42;;;;;;;37.05;21.48;;;;;;;4.83;100.00;101517.22;5056807;28;20056;-63
2021/12/13 00:59:13;;;;;;;40.67;22.83;;;;;;;4.79;100.00;101517.31;5060739;28;20044;-63
2021/12/13 01:01:40;;;;;;;39.08;22.38;;;;;;;4.83;100.00;101525.06;5065321;28;20505;-63
2021/12/13 01:04:13;;;;;;;36.17;21.25;;;;;;;4.91;100.00;101526.63;5065203;28;20467;-62
2021/12/13 01:07:24;;;;;;;37.22;20.70;;;;;;;4.90;100.00;101532.75;5050188;28;20055;-63
2021/12/13 01:10:08;;;;;;;35.88;21.23;;;;;;;4.88;100.00;101543.22;5066786;28;20084;-64
2021/12/13 01:12:36;;;;;;;36.38;22.55;;;;;;;4.87;100.00;101546.72;5066882;28;20079;-64
2021/12/13 01:15:09;;;;;;;43.35;22.63;;;;;;;4.89;100.00;101550.16;5065475;28;20160;-64
2021/12/13 01:21:02;;;;;;;35.05;21.17;;;;;;;4.95;100.00;101552.63;5059907;28;20048;-63
2021/12/13 01:23:48;;;;;;;34.45;21.42;;;;;;;4.97;100.00;101552.63;5052461;28;20525;-63
2021/12/13 01:26:38;;;;;;;35.30;20.73;;;;;;;4.96;100.00;101559.59;5065552;28;20136;-63
2021/12/13 01:29:19;;;;;;;35.17;20.33;;;;;;;5.02;100.00;101556.84;5065922;28;20045;-64
2021/12/13 01:31:52;;;;;;;35.83;20.90;;;;;;;5.11;100.00;101562.75;5066942;28;20048;-64
2021/12/13 01:34:21;;;;;;;32.00;20.17;;;;;;;5.05;100.00;101563.75;5062281;28;20053;-64
2021/12/13 01:37:07;;;;;;;32.67;20.85;;;;;;;5.07;100.00;101561.97;5066532;28;20051;-64
2021/12/13 01:39:36;;;;;;;32.72;21.02;;;;;;;5.04;100.00;101560.28;5062417;28;20088;-64
2021/12/13 01:42:10;;;;;;;36.42;21.95;;;;;;;5.05;100.00;101556.78;5066867;28;20051;-63
2021/12/13 01:44:42;;;;;;;34.92;21.83;;;;;;;5.10;100.00;101569.72;5061072;28;20052;-63
2021/12/13 01:47:24;;;;;;;37.63;21.27;;;;;;;5.08;100.00;101568.88;5065089;28;20048;-64
2021/12/13 01:49:55;;;;;;;35.20;19.75;;;;;;;5.09;100.00;101570.63;5067587;28;20376;-64
2021/12/13 01:52:29;;;;;;;33.53;20.92;;;;;;;5.15;100.00;101567.03;5071333;28;20056;-63
2021/12/13 01:54:59;;;;;;;34.97;21.33;;;;;;;5.15;100.00;101567.03;5065109;28;20044;-63
2021/12/13 01:57:40;;;;;;;35.38;21.92;;;;;;;5.13;100.00;101567.03;5067641;28;20076;-64
2021/12/13 02:00:18;;;;;;;32.28;20.55;;;;;;;5.15;100.00;101567.88;5065635;28;20048;-63
2021/12/13 02:02:48;;;;;;;34.85;21.45;;;;;;;5.13;100.00;101561.81;5067190;28;20052;-63
2021/12/13 02:05:27;;;;;;;34.40;21.55;;;;;;;5.15;100.00;101567.88;5061782;28;20167;-63
2021/12/13 02:07:57;;;;;;;37.38;22.73;;;;;;;5.13;100.00;101567.03;5067550;28;20059;-63
2021/12/13 02:10:51;;;;;;;35.03;20.77;;;;;;;5.14;100.00;101570.53;5059468;28;20076;-63
2021/12/13 02:13:28;;;;;;;37.75;22.15;;;;;;;5.14;100.00;101573.16;5067809;28;20143;-64
2021/12/13 02:18:54;;;;;;;35.15;20.92;;;;;;;5.16;100.00;101577.41;5064955;28;21381;-64
2021/12/13 02:21:29;;;;;;;37.65;21.50;;;;;;;5.16;100.00;101577.41;5060496;28;20118;-64
2021/12/13 02:24:03;;;;;;;32.45;20.58;;;;;;;5.15;100.00;101570.50;5061670;28;20147;-64
2021/12/13 02:26:32;;;;;;;39.95;22.55;;;;;;;5.19;100.00;101577.38;5065015;28;20052;-63
2021/12/13 02:29:11;;;;;;;33.30;20.67;;;;;;;5.23;100.00;101570.34;5066359;28;20414;-64
2021/12/13 02:31:39;;;;;;;34.28;21.80;;;;;;;5.26;100.00;101572.84;5065267;28;20059;-64
2021/12/13 02:34:11;;;;;;;31.23;20.13;;;;;;;5.24;100.00;101577.25;5059512;28;20471;-63
2021/12/13 02:36:50;;;;;;;35.35;20.98;;;;;;;5.29;100.00;101580.63;5068112;28;20158;-64
2021/12/13 02:39:33;;;;;;;31.23;20.55;;;;;;;5.31;100.00;101584.06;5065045;28;20060;-62
2021/12/13 02:42:03;;;;;;;36.40;20.08;;;;;;;5.29;100.00;101580.63;5069192;28;20056;-65
2021/12/13 02:44:39;;;;;;;30.48;18.60;;;;;;;5.30;100.00;101582.34;5062273;28;20110;-63
2021/12/13 02:47:20;;;;;;;31.23;19.90;;;;;;;5.33;100.00;101579.69;5052985;28;20044;-63
2021/12/13 02:49:48;;;;;;;33.20;20.48;;;;;;;5.35;100.00;101575.25;5062263;28;20052;-63
2021/12/13 02:52:18;;;;;;;33.55;20.63;;;;;;;5.36;100.00;101577.00;5060582;28;20066;-63
2021/12/13 02:54:51;;;;;;;35.58;20.98;;;;;;;5.35;100.00;101575.25;5065797;28;20144;-63
2021/12/13 02:57:24;;;;;;;33.33;20.50;;;;;;;5.36;100.00;101576.13;5066820;28;20072;-64
2021/12/13 02:59:56;;;;;;;30.67;20.23;;;;;;;5.36;100.00;101577.00;5064579;28;20063;-62
2021/12/13 03:02:31;;;;;;;34.90;20.02;;;;;;;5.34;100.00;101582.25;5053287;28;20048;-62
2021/12/13 03:05:00;;;;;;;29.00;18.95;;;;;;;5.33;100.00;101577.91;5047263;28;20056;-62
2021/12/13 03:07:32;;;;;;;34.05;19.88;;;;;;;5.32;100.00;101576.22;5072154;28;20078;-62
2021/12/13 03:10:03;;;;;;;32.38;20.30;;;;;;;5.29;100.00;101585.84;5066249;28;20048;-63
2021/12/13 03:12:31;;;;;;;31.13;18.92;;;;;;;5.33;100.00;101584.91;5065802;28;20685;-63
2021/12/13 03:15:03;;;;;;;36.50;21.55;;;;;;;5.28;100.00;101587.59;5066048;28;20520;-62
2021/12/13 03:17:38;;;;;;;38.28;22.20;;;;;;;5.32;100.00;101594.50;5066689;28;20094;-62
2021/12/13 03:20:43;;;;;;;39.75;22.25;;;;;;;5.33;100.00;101590.97;5053357;28;20056;-63
2021/12/13 03:23:13;;;;;;;41.15;22.98;;;;;;;5.31;100.00;101592.78;5059412;28;20040;-63
2021/12/13 03:25:40;;;;;;;38.20;21.38;;;;;;;5.32;100.00;101596.25;5048194;28;20119;-63
2021/12/13 03:28:34;;;;;;;41.45;23.15;;;;;;;5.34;100.00;101594.44;5065712;28;20420;-63
2021/12/13 03:31:03;;;;;;;40.83;22.42;;;;;;;5.36;100.00;101592.69;5045879;28;20053;-62
2021/12/13 03:33:36;;;;;;;42.05;22.23;;;;;;;5.34;100.00;101589.22;5066910;28;20087;-63
2021/12/13 03:36:10;;;;;;;38.95;20.80;;;;;;;5.38;100.00;101601.31;5049415;28;20041;-62
2021/12/13 03:38:43;;;;;;;38.60;22.00;;;;;;;5.36;100.00;101594.41;5052981;28;20056;-62
2021/12/13 03:41:15;;;;;;;39.17;21.95;;;;;;;5.31;100.00;101594.50;5064882;28;20049;-63
2021/12/13 03:43:45;;;;;;;36.90;21.65;;;;;;;5.31;100.00;101594.50;5068693;28;20078;-63
2021/12/13 03:46:15;;;;;;;38.30;21.27;;;;;;;5.29;100.00;101597.16;5064358;28;20049;-63
2021/12/13 03:48:43;;;;;;;35.00;20.63;;;;;;;5.27;100.00;101604.19;5065366;28;20496;-61
2021/12/13 03:51:17;;;;;;;41.22;21.15;;;;;;;5.21;100.00;101606.91;5064721;28;20127;-63
2021/12/13 03:53:47;;;;;;;42.05;22.67;;;;;;;5.26;100.00;101612.88;5047246;28;20059;-63
2021/12/13 03:56:20;;;;;;;41.83;21.95;;;;;;;5.22;100.00;101613.84;5065872;28;20052;-64
2021/12/13 03:58:57;;;;;;;42.30;22.67;;;;;;;5.26;100.00;101617.25;5068605;28;20114;-63
2021/12/13 04:01:41;;;;;;;40.72;21.48;;;;;;;5.23;100.00;101614.72;5063931;28;20519;-63
2021/12/13 04:04:16;;;;;;;42.42;20.50;;;;;;;5.25;100.00;101608.56;5068483;28;20044;-63
2021/12/13 04:06:48;;;;;;;38.63;21.90;;;;;;;5.22;100.00;101620.81;5052689;28;20687;-63
2021/12/13 04:09:16;;;;;;;43.97;21.92;;;;;;;5.24;100.00;101616.44;5065002;28;20059;-62
2021/12/13 04:11:45;;;;;;;47.78;22.63;;;;;;;5.26;100.00;101609.41;5036901;28;20040;-62
2021/12/13 04:14:27;;;;;;;46.22;22.63;;;;;;;5.25;100.00;101611.16;5053207;28;20078;-62
2021/12/13 04:17:35;;;;;;;46.35;22.08;;;;;;;5.30;100.00;101617.13;5049887;28;20036;-62
2021/12/13 04:20:06;;;;;;;48.42;21.73;;;;;;;5.34;100.00;101617.94;5063136;28;20131;-62
2021/12/13 04:22:36;;;;;;;45.17;22.48;;;;;;;5.37;100.00;101614.41;5068109;28;20059;-62
2021/12/13 04:25:08;;;;;;;42.38;21.30;;;;;;;5.39;100.00;101612.63;5065584;28;20044;-62
2021/12/13 04:27:49;;;;;;;43.75;21.33;;;;;;;5.34;100.00;101618.78;5075295;28;20058;-63
2021/12/13 04:30:22;;;;;;;49.22;22.33;;;;;;;5.30;100.00;101624.13;5086400;28;20088;-62
2021/12/13 04:32:53;;;;;;;48.25;23.13;;;;;;;5.25;100.00;101626.81;5066570;28;20055;-62
2021/12/13 04:35:21;;;;;;;47.28;21.15;;;;;;;5.26;100.00;101625.06;5063175;28;20048;-62
2021/12/13 04:37:51;;;;;;;44.97;21.67;;;;;;;5.25;100.00;101625.97;5053710;28;20059;-62
2021/12/13 04:40:22;;;;;;;47.13;21.67;;;;;;;5.27;100.00;101626.81;5064642;28;20579;-63
2021/12/13 04:42:54;;;;;;;42.53;21.23;;;;;;;5.30;100.00;101629.34;5069463;28;20496;-62
2021/12/13 04:45:23;;;;;;;44.20;21.75;;;;;;;5.30;100.00;101626.72;5066692;28;20053;-63
2021/12/13 04:48:05;;;;;;;40.42;19.65;;;;;;;5.28;100.00;101626.78;5068750;28;20552;-64
2021/12/13 04:50:50;;;;;;;48.70;21.58;;;;;;;5.32;100.00;101625.81;5067954;28;20068;-63
2021/12/13 04:53:32;;;;;;;43.83;22.27;;;;;;;5.31;100.00;101629.31;5066008;28;20139;-63
2021/12/13 04:56:03;;;;;;;47.13;22.20;;;;;;;5.25;100.00;101626.81;5066809;28;20044;-63
2021/12/13 04:58:30;;;;;;;45.53;21.35;;;;;;;5.26;100.00;101630.28;5071470;28;20063;-63
2021/12/13 05:00:59;;;;;;;54.00;22.05;;;;;;;5.27;100.00;101629.44;5066920;28;20056;-63
2021/12/13 05:03:38;;;;;;;40.58;20.52;;;;;;;5.25;100.00;101629.44;5053609;28;20056;-63
2021/12/13 05:06:13;;;;;;;52.10;20.23;;;;;;;5.24;100.00;101624.25;5052533;28;20044;-63
2021/12/13 05:08:41;;;;;;;49.78;22.70;;;;;;;5.23;100.00;101627.78;5064219;28;20045;-63
2021/12/13 05:11:10;;;;;;;53.53;23.15;;;;;;;5.22;100.00;101631.25;5051216;28;20058;-63
2021/12/13 05:13:40;;;;;;;54.28;22.75;;;;;;;5.21;100.00;101634.75;5071510;28;20780;-63
2021/12/13 05:16:10;;;;;;;48.63;20.98;;;;;;;5.23;100.00;101636.47;5053541;28;20044;-63
2021/12/13 05:18:46;;;;;;;54.75;22.42;;;;;;;5.23;100.00;101639.06;5073040;28;20066;-63
2021/12/13 05:21:24;;;;;;;53.05;21.85;;;;;;;5.25;100.00;101631.19;5069253;28;20067;-63
2021/12/13 05:23:56;;;;;;;55.92;23.05;;;;;;;5.27;100.00;101632.91;5073680;28;20056;-63
2021/12/13 05:27:02;;;;;;;61.83;22.75;;;;;;;5.32;100.00;101641.47;5067488;28;20036;-63
2021/12/13 05:29:35;;;;;;;50.25;21.08;;;;;;;5.37;100.00;101644.00;5054452;28;20163;-63
2021/12/13 05:32:08;;;;;;;58.58;22.13;;;;;;;5.38;100.00;101645.72;5066099;28;20053;-63
2021/12/13 05:34:38;;;;;;;64.38;25.17;;;;;;;5.28;100.00;101647.66;5065091;28;20072;-63
2021/12/13 05:37:07;;;;;;;57.17;22.83;;;;;;;5.26;100.00;101648.56;5034241;28;20044;-63
2021/12/13 05:39:35;;;;;;;62.47;24.40;;;;;;;5.21;100.00;101647.81;5065732;28;20083;-63
2021/12/13 05:42:10;;;;;;;68.80;24.60;;;;;;;5.20;100.00;101651.31;5066810;28;20139;-63
2021/12/13 05:44:43;;;;;;;69.57;26.10;;;;;;;5.25;100.00;101662.53;5066065;28;20057;-63
2021/12/13 05:47:36;;;;;;;67.28;23.63;;;;;;;5.21;100.00;101663.47;5070170;28;20040;-63
2021/12/13 05:50:06;;;;;;;71.07;26.55;;;;;;;5.17;100.00;101661.81;5051078;28;20406;-63
2021/12/13 05:52:37;;;;;;;90.45;26.27;;;;;;;5.18;100.00;101661.78;5065101;28;20476;-63
2021/12/13 05:55:12;;;;;;;76.55;24.60;;;;;;;5.18;100.00;101667.03;5065698;28;20052;-63
2021/12/13 05:57:44;;;;;;;65.55;22.60;;;;;;;5.19;100.00;101668.72;5066206;28;20057;-62
2021/12/13 06:00:19;;;;;;;75.07;23.77;;;;;;;5.30;100.00;101673.72;5046388;28;20127;-62
2021/12/13 06:03:09;;;;;;;103.07;25.30;;;;;;;5.29;100.00;101669.41;5071294;28;20057;-63
2021/12/13 06:05:48;;;;;;;77.78;25.08;;;;;;;5.30;100.00;101665.88;5044277;28;20167;-62
2021/12/13 06:08:26;;;;;;;69.65;24.15;;;;;;;5.29;100.00;101672.00;5065568;28;20053;-60
2021/12/13 06:10:59;;;;;;;81.32;25.63;;;;;;;5.28;100.00;101678.13;5067199;28;20150;-61
2021/12/13 06:13:44;;;;;;;80.80;24.40;;;;;;;5.31;100.00;101680.66;5071543;28;20179;-63
2021/12/13 06:16:39;;;;;;;73.07;25.13;;;;;;;5.37;100.00;101682.31;5067887;28;20049;-62
2021/12/13 06:19:34;;;;;;;93.65;26.27;;;;;;;5.36;100.00;101678.84;5064882;28;20055;-63
2021/12/13 06:22:16;;;;;;;111.30;26.45;;;;;;;5.37;100.00;101684.91;5068946;28;20531;-63
2021/12/13 06:24:56;;;;;;;76.65;24.38;;;;;;;5.35;100.00;101682.31;5066486;28;20062;-63
2021/12/13 06:27:27;;;;;;;74.80;23.58;;;;;;;5.37;100.00;101683.16;5067540;28;20510;-63
2021/12/13 06:30:05;;;;;;;71.70;23.42;;;;;;;5.38;100.00;101684.88;5064857;28;20126;-63
2021/12/13 06:32:49;;;;;;;81.65;22.90;;;;;;;5.40;100.00;101693.53;5066297;28;20048;-63
2021/12/13 06:35:37;;;;;;;69.65;24.35;;;;;;;5.39;100.00;101690.97;5060387;28;20513;-64
2021/12/13 06:38:18;;;;;;;73.47;23.25;;;;;;;5.42;100.00;101694.38;5069125;28;20044;-63
2021/12/13 06:40:52;;;;;;;73.90;24.83;;;;;;;5.43;100.00;101690.88;5065001;28;20114;-63
2021/12/13 06:43:40;;;;;;;85.63;23.92;;;;;;;5.40;100.00;101698.75;5066195;28;20056;-63
2021/12/13 06:46:15;;;;;;;71.88;24.48;;;;;;;5.41;100.00;101697.88;5064955;28;20460;-63
2021/12/13 06:48:45;;;;;;;72.47;22.40;;;;;;;5.42;100.00;101702.22;5053781;28;20048;-64
2021/12/13 06:51:15;;;;;;;73.72;24.08;;;;;;;5.46;100.00;101709.09;5061935;28;20118;-64
2021/12/13 06:54:02;;;;;;;65.18;21.08;;;;;;;5.41;100.00;101703.09;5062788;28;20048;-63
2021/12/13 06:56:33;;;;;;;68.95;22.60;;;;;;;5.43;100.00;101703.91;5038757;28;20095;-63
2021/12/13 06:59:02;;;;;;;72.65;23.73;;;;;;;5.47;100.00;101710.81;5056126;28;20056;-63
2021/12/13 07:01:32;;;;;;;67.82;20.83;;;;;;;5.47;100.00;101712.56;5052550;28;20103;-63
2021/12/13 07:04:05;;;;;;;67.47;22.13;;;;;;;5.49;100.00;101718.59;5052031;28;20059;-63
2021/12/13 07:06:33;;;;;;;67.40;20.20;;;;;;;5.48;100.00;101716.88;5055307;28;20117;-63
2021/12/13 07:09:13;;;;;;;54.80;20.73;;;;;;;5.49;100.00;101721.22;5051411;28;20052;-63
2021/12/13 07:11:53;;;;;;;67.03;23.67;;;;;;;5.57;100.00;101729.75;5056735;28;20091;-63
2021/12/13 07:14:30;;;;;;;69.25;20.33;;;;;;;5.63;100.00;101723.53;5054210;28;20096;-63
2021/12/13 07:16:58;;;;;;;67.68;19.88;;;;;;;5.63;100.00;101731.38;5055037;28;20136;-63
2021/12/13 07:19:27;;;;;;;77.65;22.35;;;;;;;5.68;100.00;101729.56;5031721;28;20049;-63
2021/12/13 07:22:04;;;;;;;68.50;21.48;;;;;;;5.67;100.00;101713.00;5037463;28;20048;-63
2021/12/13 07:24:52;;;;;;;73.53;21.27;;;;;;;5.70;100.00;101727.75;5049803;28;20052;-63
2021/12/13 07:27:29;;;;;;;76.60;22.88;;;;;;;5.74;100.00;101730.28;5057163;28;20082;-62
2021/12/13 07:30:01;;;;;;;85.10;24.25;;;;;;;5.73;100.00;101738.16;5052837;28;20099;-62
2021/12/13 07:32:35;;;;;;;68.28;21.50;;;;;;;5.71;100.00;101743.38;5036006;28;20053;-62
2021/12/13 07:35:10;;;;;;;68.57;21.85;;;;;;;5.68;100.00;101743.47;5031142;28;20064;-62
2021/12/13 07:37:58;;;;;;;83.20;24.05;;;;;;;5.68;100.00;101745.22;5038073;28;20068;-62
2021/12/13 07:40:34;;;;;;;75.78;23.63;;;;;;;5.69;100.00;101752.16;5037181;28;20065;-62
2021/12/13 07:43:07;;;;;;;83.20;23.63;;;;;;;5.73;100.00;101759.06;5060517;28;20049;-61
2021/12/13 07:45:46;;;;;;;65.57;20.95;;;;;;;5.69;100.00;101762.63;5056305;28;20048;-62
2021/12/13 07:48:19;;;;;;;64.80;22.20;;;;;;;5.71;100.00;101766.03;5058685;28;20065;-62
2021/12/13 07:50:58;;;;;;;84.53;24.05;;;;;;;5.73;100.00;101764.28;5025671;28;20088;-62
2021/12/13 07:53:28;;;;;;;71.03;23.15;;;;;;;5.81;100.00;101762.38;5058311;28;20044;-63
2021/12/13 07:55:56;;;;;;;67.45;21.42;;;;;;;5.76;100.00;101765.09;5037574;28;20507;-66
2021/12/13 07:58:41;;;;;;;59.97;19.67;;;;;;;5.74;100.00;101760.75;5042038;28;20036;-63
2021/12/13 08:01:18;;;;;;;71.03;22.35;;;;;;;5.77;100.00;101766.78;5059689;28;20092;-63
2021/12/13 08:03:52;;;;;;;68.25;21.20;;;;;;;5.87;100.00;101766.59;5057884;28;20053;-63
2021/12/13 08:06:21;;;;;;;72.80;21.40;;;;;;;5.86;100.00;101765.75;5056265;28;20052;-62
2021/12/13 08:08:54;;;;;;;66.32;21.13;;;;;;;5.94;100.00;101766.44;5058147;28;20056;-63
2021/12/13 08:11:38;;;;;;;72.78;23.38;;;;;;;5.98;100.00;101770.72;5058189;28;20167;-63
2021/12/13 08:14:06;;;;;;;68.60;23.38;;;;;;;6.03;100.00;101771.50;5055826;28;20620;-63
2021/12/13 08:16:44;;;;;;;70.85;22.52;;;;;;;6.01;100.00;101775.03;5058298;28;20064;-63
2021/12/13 08:19:19;;;;;;;70.82;24.67;;;;;;;6.03;100.00;101773.22;5057643;28;20816;-62
2021/12/13 08:21:54;;;;;;;77.20;25.33;;;;;;;6.06;100.00;101779.25;5060433;28;20067;-63
2021/12/13 08:24:25;;;;;;;67.25;23.33;;;;;;;6.13;100.00;101780.00;5056093;28;20150;-63
2021/12/13 08:27:02;;;;;;;68.78;24.02;;;;;;;6.15;100.00;101777.34;5058657;28;20129;-64
2021/12/13 08:29:32;;;;;;;69.10;25.10;;;;;;;6.18;100.00;101782.53;5056478;28;20057;-63
2021/12/13 08:32:05;;;;;;;66.90;24.00;;;;;;;6.24;100.00;101782.38;5059569;28;20056;-63
2021/12/13 08:34:56;;;;;;;64.32;24.48;;;;;;;6.30;100.00;101783.09;5057771;28;20052;-64
2021/12/13 08:37:41;;;;;;;71.50;26.10;;;;;;;6.28;100.00;101776.19;5060865;28;20076;-64
2021/12/13 08:40:17;;;;;;;70.57;25.80;;;;;;;6.29;100.00;101780.50;5055286;28;20167;-64
2021/12/13 08:42:46;;;;;;;57.92;23.45;;;;;;;6.22;100.00;101782.41;5058746;28;20053;-64
2021/12/13 08:45:22;;;;;;;77.57;24.15;;;;;;;6.20;100.00;101786.81;5053973;28;20795;-64
2021/12/13 08:47:52;;;;;;;65.07;24.08;;;;;;;6.21;100.00;101792.88;5060256;28;20143;-64
2021/12/13 08:50:27;;;;;;;63.63;26.08;;;;;;;6.25;100.00;101791.94;5054111;28;20065;-64
2021/12/13 08:53:30;;;;;;;66.63;24.77;;;;;;;6.34;100.00;101795.19;5059875;28;20223;-64
2021/12/13 08:56:03;;;;;;;68.18;23.23;;;;;;;6.24;100.00;101791.06;5045385;28;20079;-63
2021/12/13 08:58:31;;;;;;;63.13;24.65;;;;;;;6.34;100.00;101789.09;5055868;28;20066;-64
2021/12/13 09:01:05;;;;;;;61.45;23.42;;;;;;;6.45;100.00;101786.25;5057990;28;20754;-64
2021/12/13 09:03:38;;;;;;;56.57;22.53;;;;;;;6.48;100.00;101794.88;5056657;28;20147;-64
2021/12/13 09:06:17;;;;;;;61.50;23.52;;;;;;;6.45;100.00;101797.59;5054565;28;20470;-62
2021/12/13 09:08:44;;;;;;;60.58;23.90;;;;;;;6.36;100.00;101797.78;5056469;28;20143;-64
2021/12/13 09:11:23;;;;;;;63.75;25.20;;;;;;;6.29;100.00;101801.44;5056623;28;20052;-63
2021/12/13 09:14:01;;;;;;;59.95;22.77;;;;;;;6.34;100.00;101799.56;5039152;28;20063;-63
2021/12/13 09:16:56;;;;;;;59.90;23.23;;;;;;;6.36;100.00;101789.09;5018425;28;20159;-62
2021/12/13 09:19:28;;;;;;;58.17;23.58;;;;;;;6.43;100.00;101788.88;5018402;28;20135;-63
2021/12/13 09:22:41;;;;;;;62.72;24.55;;;;;;;6.52;100.00;101796.53;5059152;28;20768;-63
2021/12/13 09:25:08;;;;;;;62.92;24.42;;;;;;;6.61;100.00;101800.69;5051663;28;20087;-63
2021/12/13 09:27:57;;;;;;;65.28;25.27;;;;;;;6.67;100.00;101802.31;5058016;28;20052;-63
2021/12/13 09:30:30;;;;;;;65.82;26.33;;;;;;;6.79;100.00;101796.75;5055775;28;20095;-62
2021/12/13 09:33:11;;;;;;;58.33;24.35;;;;;;;6.76;100.00;101789.88;5057457;28;20159;-64
2021/12/13 09:35:42;;;;;;;56.45;24.98;;;;;;;6.80;100.00;101795.91;5035818;28;20070;-63
2021/12/13 09:38:26;;;;;;;59.45;24.63;;;;;;;6.75;100.00;101797.75;5056812;28;20127;-63
2021/12/13 09:41:04;;;;;;;49.22;21.27;;;;;;;6.83;100.00;101799.28;5056023;28;20500;-63
2021/12/13 09:43:38;;;;;;;55.45;22.42;;;;;;;6.86;100.00;101808.81;5055061;28;20062;-62
2021/12/13 09:46:06;;;;;;;54.73;22.57;;;;;;;6.97;100.00;101804.16;5017021;28;20130;-62
2021/12/13 09:48:40;;;;;;;57.08;23.33;;;;;;;6.95;100.00;101815.59;5019097;28;20036;-61
2021/12/13 09:51:13;;;;;;;52.17;22.90;;;;;;;6.86;100.00;101814.06;5055881;28;20060;-64
2021/12/13 09:53:41;;;;;;;50.15;23.63;;;;;;;6.75;100.00;101808.19;5056059;28;20430;-61
2021/12/13 09:56:12;;;;;;;47.38;23.05;;;;;;;6.72;100.00;101817.00;5035638;28;20103;-62
2021/12/13 09:58:50;;;;;;;53.13;24.02;;;;;;;6.74;100.00;101812.59;5057841;28;20548;-62
2021/12/13 10:01:29;;;;;;;54.38;24.08;;;;;;;6.80;100.00;101817.69;5052816;28;20127;-62
2021/12/13 10:04:04;;;;;;;52.55;24.50;;;;;;;6.88;100.00;101814.88;5056421;28;20049;-63
2021/12/13 10:06:58;;;;;;;50.80;24.15;;;;;;;6.95;100.00;101805.97;5049473;28;20044;-62
2021/12/13 10:09:28;;;;;;;45.05;21.90;;;;;;;7.09;100.00;101816.09;5055883;28;20055;-62
2021/12/13 10:12:03;;;;;;;47.33;22.15;;;;;;;7.19;100.00;101808.84;5057479;28;20049;-62
2021/12/13 10:14:34;;;;;;;45.72;20.70;;;;;;;7.25;100.00;101809.56;5050056;28;20048;-61
2021/12/13 10:17:04;;;;;;;44.85;20.52;;;;;;;7.24;100.00;101806.97;5055826;28;20094;-62
2021/12/13 10:19:36;;;;;;;41.83;20.13;;;;;;;7.31;100.00;101804.16;5054202;28;20055;-62
2021/12/13 10:22:05;;;;;;;41.53;20.80;;;;;;;7.32;100.00;101802.41;5055598;28;20131;-65
2021/12/13 10:24:37;;;;;;;36.70;18.67;;;;;;;7.31;100.00;101805.94;5035982;28;20059;-63
2021/12/13 10:27:08;;;;;;;37.42;18.88;;;;;;;7.32;100.00;101799.78;5061406;28;20072;-63
2021/12/13 10:29:42;;;;;;;37.80;18.58;;;;;;;7.34;100.00;101795.38;5059945;28;20051;-62
2021/12/13 10:32:31;;;;;;;31.83;17.42;;;;;;;7.29;100.00;101803.31;5067498;28;20445;-62
2021/12/13 10:35:04;;;;;;;35.92;18.15;;;;;;;7.25;100.00;101800.81;5067623;28;20041;-64
2021/12/13 10:37:34;;;;;;;36.33;16.02;;;;;;;7.23;100.00;101800.88;5048928;28;20055;-63
2021/12/13 10:40:09;;;;;;;32.83;17.80;;;;;;;7.22;100.00;101799.16;5065698;28;20050;-62
2021/12/13 10:42:44;;;;;;;33.70;17.73;;;;;;;7.17;100.00;101801.06;5052884;28;20060;-62
2021/12/13 10:45:19;;;;;;;34.90;18.67;;;;;;;7.17;100.00;101798.44;5064779;28;20522;-62
2021/12/13 10:47:50;;;;;;;44.08;22.23;;;;;;;7.10;100.00;101797.72;5068379;28;20056;-62
2021/12/13 10:50:23;;;;;;;41.20;19.50;;;;;;;7.07;100.00;101802.19;5049004;28;20473;-62
2021/12/13 10:52:53;;;;;;;38.42;17.38;;;;;;;6.99;100.00;101794.53;5065602;28;20140;-62
2021/12/13 10:55:26;;;;;;;34.45;16.58;;;;;;;7.05;100.00;101799.59;5064603;28;20059;-63
2021/12/13 10:57:53;;;;;;;35.17;17.50;;;;;;;7.09;100.00;101788.16;5055118;28;20112;-63
2021/12/13 11:00:25;;;;;;;38.92;18.65;;;;;;;7.07;100.00;101786.50;5067871;28;20091;-63
2021/12/13 11:03:00;;;;;;;37.55;17.20;;;;;;;7.10;100.00;101786.38;5066544;28;20063;-63
2021/12/13 11:05:28;;;;;;;37.13;19.35;;;;;;;7.25;100.00;101787.72;5061407;28;20056;-63
2021/12/13 11:07:58;;;;;;;37.80;18.02;;;;;;;7.30;100.00;101791.97;5067433;28;20083;-63
2021/12/13 11:10:34;;;;;;;36.58;18.58;;;;;;;7.28;100.00;101785.91;5065125;28;20080;-62
2021/12/13 11:13:22;;;;;;;39.38;19.15;;;;;;;7.32;100.00;101787.53;5069675;28;20319;-63
2021/12/13 11:15:52;;;;;;;36.95;18.83;;;;;;;7.33;100.00;101793.63;5071745;28;20218;-62
2021/12/13 11:18:27;;;;;;;39.13;17.75;;;;;;;7.28;100.00;101801.63;5067006;28;20056;-62
2021/12/13 11:21:03;;;;;;;41.28;19.65;;;;;;;7.29;100.00;101803.31;5071442;28;20064;-62
2021/12/13 11:23:30;;;;;;;42.33;19.23;;;;;;;7.33;100.00;101794.50;5050332;28;20195;-62
2021/12/13 11:26:05;;;;;;;32.55;17.30;;;;;;;7.32;100.00;101791.91;5069422;28;20175;-62
2021/12/13 11:28:33;;;;;;;37.28;18.60;;;;;;;7.27;100.00;101799.03;5066845;28;20376;-62
2021/12/13 11:31:09;;;;;;;40.72;18.70;;;;;;;7.29;100.00;101802.47;5070472;28;20062;-62
2021/12/13 11:33:41;;;;;;;41.53;19.33;;;;;;;7.33;100.00;101797.13;5068823;28;20061;-63
2021/12/13 11:36:36;;;;;;;40.20;18.95;;;;;;;7.43;100.00;101799.47;5071580;28;20556;-63
2021/12/13 11:39:27;;;;;;;39.05;18.58;;;;;;;7.52;100.00;101796.59;5066403;28;20048;-63
2021/12/13 11:42:28;;;;;;;38.47;18.50;;;;;;;7.63;100.00;101801.56;5067045;28;20041;-63
2021/12/13 11:45:32;;;;;;;40.15;18.90;;;;;;;7.63;100.00;101798.94;5068254;28;20057;-63
2021/12/13 11:48:31;;;;;;;34.67;17.17;;;;;;;7.60;100.00;101800.75;5071041;28;20051;-63
2021/12/13 11:51:16;;;;;;;38.30;17.52;;;;;;;7.64;100.00;101793.66;5050132;28;20102;-63
2021/12/13 11:53:52;;;;;;;35.60;18.23;;;;;;;7.64;100.00;101800.66;5069896;28;20526;-63
2021/12/13 11:56:55;;;;;;;38.00;18.80;;;;;;;7.68;100.00;101802.31;5052119;28;20140;-63